createdAt,value
2022-09-09T00:00:56.929Z,14.60
2022-09-09T00:03:03.435Z,14.58
2022-09-09T00:05:20.236Z,14.55
2022-09-09T00:07:42.718Z,14.51
2022-09-09T00:09:50.097Z,14.50
2022-09-09T00:12:00.555Z,14.52
2022-09-09T00:14:09.270Z,14.49
2022-09-09T00:16:17.392Z,14.35
2022-09-09T00:18:36.999Z,14.38
2022-09-09T00:21:18.216Z,14.32
2022-09-09T00:23:31.265Z,14.30
2022-09-09T00:25:51.884Z,14.29
2022-09-09T00:27:54.708Z,14.27
2022-09-09T00:30:01.505Z,14.31
2022-09-09T00:32:14.034Z,14.28
2022-09-09T00:34:24.554Z,14.25
2022-09-09T00:36:29.324Z,14.22
2022-09-09T00:38:46.704Z,14.19
2022-09-09T00:40:54.287Z,14.18
2022-09-09T00:43:04.196Z,14.17
2022-09-09T00:45:13.156Z,14.15
2022-09-09T00:47:39.947Z,14.12
2022-09-09T00:50:02.320Z,14.09
2022-09-09T00:52:31.855Z,14.09
2022-09-09T00:54:47.806Z,14.07
2022-09-09T00:57:07.744Z,14.05
2022-09-09T00:59:45.648Z,14.03
2022-09-09T01:01:47.239Z,14.03
2022-09-09T01:03:56.604Z,14.04
2022-09-09T01:06:06.914Z,14.03
2022-09-09T01:08:29.159Z,14.02
2022-09-09T01:10:42.695Z,14.00
2022-09-09T01:12:47.712Z,13.99
2022-09-09T01:14:53.151Z,13.98
2022-09-09T01:17:00.845Z,13.98
2022-09-09T01:19:03.927Z,13.97
2022-09-09T01:21:23.809Z,13.97
2022-09-09T01:23:55.093Z,13.93
2022-09-09T01:26:26.510Z,13.90
2022-09-09T01:28:29.644Z,13.92
2022-09-09T01:30:32.957Z,13.89
2022-09-09T01:32:41.271Z,13.89
2022-09-09T01:34:42.720Z,13.87
2022-09-09T01:37:16.911Z,13.87
2022-09-09T01:39:18.817Z,13.87
2022-09-09T01:41:20.674Z,13.89
2022-09-09T01:43:24.622Z,13.89
2022-09-09T01:45:26.521Z,13.88
2022-09-09T01:47:28.323Z,13.87
2022-09-09T01:49:29.859Z,13.84
2022-09-09T01:51:31.636Z,13.83
2022-09-09T01:53:33.129Z,13.80
2022-09-09T01:55:42.655Z,13.80
2022-09-09T01:58:19.511Z,13.79
2022-09-09T02:00:21.105Z,13.74
2022-09-09T02:03:14.657Z,13.68
2022-09-09T02:05:38.496Z,13.70
2022-09-09T02:08:11.652Z,13.70
2022-09-09T02:10:17.634Z,13.69
2022-09-09T02:12:22.383Z,13.67
2022-09-09T02:14:28.392Z,13.64
2022-09-09T02:16:43.391Z,13.58
2022-09-09T02:19:03.589Z,13.58
2022-09-09T02:21:07.615Z,13.60
2022-09-09T02:23:11.763Z,13.59
2022-09-09T02:25:16.813Z,13.60
2022-09-09T02:27:20.242Z,13.57
2022-09-09T02:29:29.752Z,13.56
2022-09-09T02:31:32.565Z,13.52
2022-09-09T02:33:41.094Z,13.55
2022-09-09T02:35:44.508Z,13.52
2022-09-09T02:37:49.463Z,13.49
2022-09-09T02:39:50.949Z,13.49
2022-09-09T02:41:52.835Z,13.50
2022-09-09T02:43:54.335Z,13.50
2022-09-09T02:46:32.754Z,13.48
2022-09-09T02:48:48.468Z,13.46
2022-09-09T02:50:50.159Z,13.45
2022-09-09T02:53:03.409Z,13.43
2022-09-09T02:55:32.179Z,13.39
2022-09-09T02:57:35.487Z,13.35
2022-09-09T02:59:37.462Z,13.35
2022-09-09T03:01:40.984Z,13.34
2022-09-09T03:03:43.159Z,13.33
2022-09-09T03:05:45.656Z,13.32
2022-09-09T03:07:47.691Z,13.30
2022-09-09T03:09:49.863Z,13.30
2022-09-09T03:11:51.436Z,13.31
2022-09-09T03:13:52.858Z,13.30
2022-09-09T03:15:54.302Z,13.30
2022-09-09T03:17:56.176Z,13.30
2022-09-09T03:19:59.689Z,13.30
2022-09-09T03:22:01.304Z,13.28
2022-09-09T03:24:04.313Z,13.28
2022-09-09T03:26:05.837Z,13.27
2022-09-09T03:28:07.272Z,13.29
2022-09-09T03:30:09.268Z,13.31
2022-09-09T03:32:11.645Z,13.32
2022-09-09T03:34:14.590Z,13.34
2022-09-09T03:36:16.361Z,13.35
2022-09-09T03:38:18.140Z,13.38
2022-09-09T03:40:21.132Z,13.39
2022-09-09T03:42:22.625Z,13.40
2022-09-09T03:44:24.124Z,13.42
2022-09-09T03:46:26.799Z,13.44
2022-09-09T03:48:29.000Z,13.45
2022-09-09T03:50:31.024Z,13.47
2022-09-09T03:52:32.453Z,13.48
2022-09-09T03:54:33.950Z,13.48
2022-09-09T03:56:36.455Z,13.48
2022-09-09T03:58:38.942Z,13.49
2022-09-09T04:00:43.294Z,13.50
2022-09-09T04:02:44.753Z,13.51
2022-09-09T04:04:46.207Z,13.54
2022-09-09T04:06:49.297Z,13.55
2022-09-09T04:08:50.886Z,13.56
2022-09-09T04:10:53.650Z,13.59
2022-09-09T04:12:55.093Z,13.61
2022-09-09T04:14:56.536Z,13.62
2022-09-09T04:16:59.347Z,13.63
2022-09-09T04:19:01.091Z,13.64
2022-09-09T04:21:02.744Z,13.65
2022-09-09T04:23:05.428Z,13.68
2022-09-09T04:25:07.357Z,13.68
2022-09-09T04:27:08.865Z,13.69
2022-09-09T04:29:10.700Z,13.70
2022-09-09T04:31:19.068Z,13.71
2022-09-09T04:33:20.848Z,13.71
2022-09-09T04:35:22.308Z,13.73
2022-09-09T04:37:23.760Z,13.72
2022-09-09T04:39:25.643Z,13.74
2022-09-09T04:41:27.082Z,13.76
2022-09-09T04:43:28.563Z,13.79
2022-09-09T04:45:30.180Z,13.79
2022-09-09T04:47:31.700Z,13.78
2022-09-09T04:49:33.131Z,13.76
2022-09-09T04:51:34.589Z,13.77
2022-09-09T04:53:36.717Z,13.77
2022-09-09T04:55:38.634Z,13.77
2022-09-09T04:57:40.995Z,13.77
2022-09-09T04:59:42.415Z,13.78
2022-09-09T05:01:43.858Z,13.77
2022-09-09T05:03:48.726Z,13.78
2022-09-09T05:05:50.160Z,13.77
2022-09-09T05:07:51.600Z,13.77
2022-09-09T05:09:53.135Z,13.76
2022-09-09T05:11:54.702Z,13.77
2022-09-09T05:13:57.392Z,13.78
2022-09-09T05:15:59.088Z,13.78
2022-09-09T05:18:02.021Z,13.77
2022-09-09T05:20:09.523Z,13.78
2022-09-09T05:22:12.917Z,13.79
2022-09-09T05:24:14.410Z,13.80
2022-09-09T05:26:21.147Z,13.80
2022-09-09T05:28:22.739Z,13.82
2022-09-09T05:30:27.317Z,13.83
2022-09-09T05:32:33.257Z,13.86
2022-09-09T05:34:34.713Z,13.84
2022-09-09T05:36:36.317Z,13.87
2022-09-09T05:38:38.891Z,13.89
2022-09-09T05:40:40.354Z,13.88
2022-09-09T05:42:42.492Z,13.91
2022-09-09T05:44:44.083Z,13.92
2022-09-09T05:46:45.971Z,13.92
2022-09-09T05:48:49.019Z,13.92
2022-09-09T05:50:56.394Z,13.93
2022-09-09T05:52:57.820Z,13.94
2022-09-09T05:55:00.250Z,13.94
2022-09-09T05:57:01.767Z,13.98
2022-09-09T05:59:03.235Z,14.06
2022-09-09T06:01:10.900Z,14.14
2022-09-09T06:03:13.312Z,14.22
2022-09-09T06:05:16.140Z,14.28
2022-09-09T06:07:17.666Z,14.34
2022-09-09T06:09:19.185Z,14.42
2022-09-09T06:11:27.403Z,14.49
2022-09-09T06:13:28.861Z,14.54
2022-09-09T06:15:31.575Z,14.60
2022-09-09T06:17:33.032Z,14.67
2022-09-09T06:19:34.506Z,14.72
2022-09-09T06:21:41.230Z,14.76
2022-09-09T06:23:43.412Z,14.78
2022-09-09T06:25:44.847Z,14.76
2022-09-09T06:27:50.339Z,14.75
2022-09-09T06:29:51.789Z,14.73
2022-09-09T06:31:53.300Z,14.70
2022-09-09T06:33:56.083Z,14.68
2022-09-09T06:35:58.109Z,14.68
2022-09-09T06:37:59.593Z,14.66
2022-09-09T06:40:01.081Z,14.65
2022-09-09T06:42:02.592Z,14.65
2022-09-09T06:44:04.726Z,14.63
2022-09-09T06:46:09.206Z,14.64
2022-09-09T06:48:10.725Z,14.68
2022-09-09T06:50:12.281Z,14.67
2022-09-09T06:52:13.923Z,14.66
2022-09-09T06:54:15.345Z,14.66
2022-09-09T06:56:29.096Z,14.68
2022-09-09T06:58:31.107Z,14.69
2022-09-09T07:00:32.564Z,14.70
2022-09-09T07:02:39.807Z,14.72
2022-09-09T07:04:41.290Z,14.71
2022-09-09T07:06:45.331Z,14.73
2022-09-09T07:08:56.215Z,14.76
2022-09-09T07:11:12.378Z,14.80
2022-09-09T07:13:16.586Z,14.86
2022-09-09T07:15:19.650Z,14.91
2022-09-09T07:17:21.092Z,14.95
2022-09-09T07:19:22.567Z,14.98
2022-09-09T07:21:25.514Z,15.05
2022-09-09T07:23:27.087Z,15.16
2022-09-09T07:25:30.693Z,15.24
2022-09-09T07:27:32.138Z,15.30
2022-09-09T07:29:33.979Z,15.36
2022-09-09T07:31:38.136Z,15.43
2022-09-09T07:33:39.693Z,15.51
2022-09-09T07:35:41.679Z,15.62
2022-09-09T07:37:44.946Z,15.71
2022-09-09T07:39:49.356Z,15.78
2022-09-09T07:41:51.943Z,15.84
2022-09-09T07:43:56.827Z,15.88
2022-09-09T07:45:59.617Z,15.94
2022-09-09T07:48:01.843Z,15.99
2022-09-09T07:50:03.353Z,16.04
2022-09-09T07:52:04.916Z,16.10
2022-09-09T07:54:10.338Z,16.18
2022-09-09T07:56:14.946Z,16.27
2022-09-09T07:58:16.388Z,16.32
2022-09-09T08:00:19.865Z,16.40
2022-09-09T08:02:21.360Z,16.46
2022-09-09T08:04:24.637Z,16.49
2022-09-09T08:06:27.991Z,16.54
2022-09-09T08:08:30.921Z,16.55
2022-09-09T08:10:32.386Z,16.64
2022-09-09T08:12:36.225Z,16.68
2022-09-09T08:14:38.065Z,16.74
2022-09-09T08:16:46.029Z,16.83
2022-09-09T08:18:48.597Z,16.94
2022-09-09T08:20:50.124Z,17.03
2022-09-09T08:22:51.583Z,17.10
2022-09-09T08:24:53.179Z,17.12
2022-09-09T08:26:54.736Z,17.13
2022-09-09T08:28:58.391Z,17.15
2022-09-09T08:31:08.636Z,17.23
2022-09-09T08:33:10.367Z,17.31
2022-09-09T08:35:12.209Z,17.36
2022-09-09T08:37:14.599Z,17.42
2022-09-09T08:39:20.165Z,17.49
2022-09-09T08:41:49.569Z,17.55
2022-09-09T08:43:59.989Z,17.64
2022-09-09T08:46:36.356Z,17.69
2022-09-09T08:49:02.322Z,17.75
2022-09-09T08:51:09.605Z,17.82
2022-09-09T08:53:29.306Z,17.85
2022-09-09T08:55:46.271Z,17.90
2022-09-09T08:57:49.579Z,17.99
2022-09-09T08:59:51.673Z,18.11
2022-09-09T09:02:16.917Z,18.27
2022-09-09T09:04:46.088Z,18.40
2022-09-09T09:07:15.318Z,18.51
2022-09-09T09:09:35.238Z,18.58
2022-09-09T09:12:02.319Z,18.63
2022-09-09T09:14:24.406Z,18.68
2022-09-09T09:16:54.957Z,18.81
2022-09-09T09:18:58.146Z,18.95
2022-09-09T09:21:47.445Z,19.08
2022-09-09T09:24:00.595Z,19.21
2022-09-09T09:26:02.298Z,19.28
2022-09-09T09:28:22.793Z,19.33
2022-09-09T09:30:30.622Z,19.33
2022-09-09T09:32:35.875Z,19.31
2022-09-09T09:34:37.338Z,19.31
2022-09-09T09:36:52.612Z,19.27
2022-09-09T09:41:34.684Z,19.09
2022-09-09T09:43:38.627Z,19.00
2022-09-09T09:46:06.775Z,18.96
2022-09-09T09:48:14.471Z,18.91
2022-09-09T09:50:21.351Z,18.89
2022-09-09T09:52:27.662Z,18.90
2022-09-09T09:54:49.372Z,18.94
2022-09-09T09:56:50.886Z,18.95
2022-09-09T09:58:54.362Z,18.99
2022-09-09T10:00:55.865Z,19.00
2022-09-09T10:02:57.410Z,19.03
2022-09-09T10:05:13.052Z,19.10
2022-09-09T10:07:20.918Z,19.15
2022-09-09T10:09:28.777Z,19.17
2022-09-09T10:12:04.708Z,19.24
2022-09-09T10:14:19.370Z,19.22
2022-09-09T10:16:29.349Z,19.20
2022-09-09T10:18:58.433Z,19.22
2022-09-09T10:21:16.938Z,19.20
2022-09-09T10:23:31.930Z,19.14
2022-09-09T10:25:53.925Z,19.11
2022-09-09T10:28:28.067Z,19.14
2022-09-09T10:30:49.920Z,19.27
2022-09-09T10:35:46.719Z,19.59
2022-09-09T10:38:12.311Z,19.66
2022-09-09T10:40:27.314Z,19.70
2022-09-09T10:42:32.401Z,19.68
2022-09-09T10:44:39.761Z,19.71
2022-09-09T10:47:27.972Z,19.70
2022-09-09T10:49:58.754Z,19.72
2022-09-09T10:52:11.874Z,19.74
2022-09-09T10:54:13.287Z,19.71
2022-09-09T10:56:17.551Z,19.70
2022-09-09T10:58:26.458Z,19.70
2022-09-09T11:00:52.815Z,19.75
2022-09-09T11:03:01.310Z,19.92
2022-09-09T11:05:20.907Z,20.12
2022-09-09T11:07:39.152Z,20.25
2022-09-09T11:09:49.254Z,20.35
2022-09-09T11:11:55.740Z,20.37
2022-09-09T11:14:19.541Z,20.34
2022-09-09T11:16:36.202Z,20.27
2022-09-09T11:18:42.443Z,20.27
2022-09-09T11:20:45.718Z,20.22
2022-09-09T11:22:57.520Z,20.20
2022-09-09T11:25:02.775Z,20.10
2022-09-09T11:27:22.901Z,20.03
2022-09-09T11:29:24.263Z,19.99
2022-09-09T11:32:00.697Z,19.97
2022-09-09T11:34:19.919Z,19.93
2022-09-09T11:36:24.066Z,19.90
2022-09-09T11:38:48.758Z,19.86
2022-09-09T11:41:00.482Z,19.82
2022-09-09T11:43:06.419Z,19.80
2022-09-09T11:45:29.698Z,19.77
2022-09-09T11:47:32.224Z,19.74
2022-09-09T11:49:40.260Z,19.62
2022-09-09T11:51:41.745Z,19.51
2022-09-09T11:53:59.636Z,19.35
2022-09-09T11:56:14.350Z,19.18
2022-09-09T11:58:19.229Z,19.10
2022-09-09T12:00:53.319Z,18.95
2022-09-09T12:02:54.761Z,18.87
2022-09-09T12:04:56.251Z,18.75
2022-09-09T12:07:03.551Z,18.61
2022-09-09T12:09:29.551Z,18.40
2022-09-09T12:11:31.682Z,18.18
2022-09-09T12:13:33.252Z,17.88
2022-09-09T12:15:35.775Z,17.65
2022-09-09T12:17:46.354Z,17.43
2022-09-09T12:19:49.138Z,17.34
2022-09-09T12:22:03.223Z,17.07
2022-09-09T12:24:31.071Z,16.98
2022-09-09T12:27:08.872Z,17.02
2022-09-09T12:29:27.928Z,17.08
2022-09-09T12:32:06.960Z,17.12
2022-09-09T12:34:30.858Z,17.07
2022-09-09T12:36:34.060Z,17.04
2022-09-09T12:38:38.208Z,17.05
2022-09-09T12:40:40.569Z,17.05
2022-09-09T12:42:42.067Z,17.00
2022-09-09T12:45:01.963Z,17.00
2022-09-09T12:47:04.773Z,17.04
2022-09-09T12:49:07.465Z,17.12
2022-09-09T12:51:22.158Z,17.22
2022-09-09T12:53:27.595Z,17.33
2022-09-09T12:55:31.885Z,17.42
2022-09-09T12:57:37.597Z,17.49
2022-09-09T12:59:42.871Z,17.56
2022-09-09T13:01:44.522Z,17.64
2022-09-09T13:03:46.662Z,17.75
2022-09-09T13:05:48.667Z,17.85
2022-09-09T13:07:51.027Z,17.94
2022-09-09T13:09:52.485Z,18.05
2022-09-09T13:11:57.461Z,18.12
2022-09-09T13:14:00.298Z,18.18
2022-09-09T13:16:03.635Z,18.25
2022-09-09T13:18:12.451Z,18.29
2022-09-09T13:20:21.361Z,18.36
2022-09-09T13:22:43.073Z,18.41
2022-09-09T13:24:44.658Z,18.45
2022-09-09T13:26:57.409Z,18.52
2022-09-09T13:29:20.223Z,18.58
2022-09-09T13:31:23.621Z,18.62
2022-09-09T13:33:31.471Z,18.61
2022-09-09T13:35:34.051Z,18.62
2022-09-09T13:37:35.468Z,18.66
2022-09-09T13:39:38.553Z,18.67
2022-09-09T13:41:49.488Z,18.68
2022-09-09T13:43:52.355Z,18.68
2022-09-09T13:45:59.668Z,18.68
2022-09-09T13:48:10.824Z,18.68
2022-09-09T13:50:27.864Z,18.63
2022-09-09T13:52:32.124Z,18.51
2022-09-09T13:54:33.693Z,18.45
2022-09-09T13:56:36.205Z,18.43
2022-09-09T13:58:37.648Z,18.37
2022-09-09T14:00:39.161Z,18.34
2022-09-09T14:02:41.223Z,18.27
2022-09-09T14:04:42.976Z,18.19
2022-09-09T14:06:44.795Z,18.14
2022-09-09T14:08:46.825Z,18.09
2022-09-09T14:10:48.562Z,18.07
2022-09-09T14:12:50.027Z,18.01
2022-09-09T14:14:51.749Z,17.97
2022-09-09T14:16:53.181Z,17.93
2022-09-09T14:18:57.112Z,17.91
2022-09-09T14:20:59.624Z,17.94
2022-09-09T14:23:03.489Z,17.94
2022-09-09T14:25:07.127Z,17.88
2022-09-09T14:27:08.549Z,17.86
2022-09-09T14:29:09.980Z,17.86
2022-09-09T14:31:11.691Z,17.86
2022-09-09T14:33:15.827Z,17.78
2022-09-09T14:35:19.279Z,17.71
2022-09-09T14:37:21.599Z,17.75
2022-09-09T14:39:23.029Z,17.80
2022-09-09T14:41:24.561Z,17.82
2022-09-09T14:43:27.052Z,17.80
2022-09-09T14:45:29.370Z,17.78
2022-09-09T14:47:31.350Z,17.76
2022-09-09T14:49:32.768Z,17.74
2022-09-09T14:51:35.163Z,17.73
2022-09-09T14:53:37.330Z,17.71
2022-09-09T14:55:39.835Z,17.69
2022-09-09T14:57:41.816Z,17.69
2022-09-09T14:59:43.305Z,17.67
2022-09-09T15:01:44.817Z,17.65
2022-09-09T15:03:52.207Z,17.64
2022-09-09T15:05:53.694Z,17.59
2022-09-09T15:07:55.423Z,17.58
2022-09-09T15:09:56.860Z,17.57
2022-09-09T15:11:58.363Z,17.55
2022-09-09T15:13:59.893Z,17.53
2022-09-09T15:16:06.300Z,17.49
2022-09-09T15:18:07.821Z,17.46
2022-09-09T15:20:09.769Z,17.48
2022-09-09T15:22:11.203Z,17.47
2022-09-09T15:24:14.577Z,17.47
2022-09-09T15:26:16.871Z,17.47
2022-09-09T15:28:18.461Z,17.46
2022-09-09T15:30:19.894Z,17.45
2022-09-09T15:32:21.351Z,17.47
2022-09-09T15:34:23.346Z,17.46
2022-09-09T15:36:27.317Z,17.45
2022-09-09T15:38:28.738Z,17.44
2022-09-09T15:40:31.663Z,17.44
2022-09-09T15:42:33.101Z,17.43
2022-09-09T15:44:43.321Z,17.43
2022-09-09T15:46:47.114Z,17.43
2022-09-09T15:48:52.311Z,17.42
2022-09-09T15:51:10.944Z,17.40
2022-09-09T15:53:25.788Z,17.38
2022-09-09T15:55:27.346Z,17.39
2022-09-09T15:57:28.944Z,17.39
2022-09-09T15:59:32.136Z,17.39
2022-09-09T16:01:34.455Z,17.38
2022-09-09T16:03:45.648Z,17.37
2022-09-09T16:05:52.162Z,17.34
2022-09-09T16:07:53.635Z,17.32
2022-09-09T16:09:55.297Z,17.32
2022-09-09T16:11:59.882Z,17.30
2022-09-09T16:14:01.591Z,17.27
2022-09-09T16:16:05.362Z,17.22
2022-09-09T16:18:06.849Z,17.22
2022-09-09T16:20:09.476Z,17.22
2022-09-09T16:22:11.036Z,17.24
2022-09-09T16:24:15.415Z,17.24
2022-09-09T16:26:18.710Z,17.19
2022-09-09T16:28:20.378Z,17.17
2022-09-09T16:30:22.207Z,17.18
2022-09-09T16:32:23.925Z,17.17
2022-09-09T16:34:26.255Z,17.17
2022-09-09T16:36:32.821Z,17.16
2022-09-09T16:38:35.185Z,17.10
2022-09-09T16:40:37.860Z,17.07
2022-09-09T16:42:39.771Z,16.99
2022-09-09T16:44:42.208Z,16.90
2022-09-09T16:46:44.599Z,16.84
2022-09-09T16:48:48.082Z,16.78
2022-09-09T16:50:49.978Z,16.71
2022-09-09T16:52:52.683Z,16.68
2022-09-09T16:54:54.107Z,16.66
2022-09-09T16:56:55.613Z,16.66
2022-09-09T16:59:03.426Z,16.60
2022-09-09T17:01:05.426Z,16.47
2022-09-09T17:03:07.032Z,16.42
2022-09-09T17:05:08.935Z,16.39
2022-09-09T17:07:11.311Z,16.39
2022-09-09T17:09:13.897Z,16.38
2022-09-09T17:11:16.546Z,16.30
2022-09-09T17:13:20.739Z,16.26
2022-09-09T17:15:22.227Z,16.15
2022-09-09T17:17:31.815Z,16.09
2022-09-09T17:19:34.474Z,16.08
2022-09-09T17:21:42.734Z,16.03
2022-09-09T17:23:57.876Z,16.02
2022-09-09T17:26:00.934Z,16.06
2022-09-09T17:28:04.928Z,16.09
2022-09-09T17:30:06.890Z,16.12
2022-09-09T17:32:08.441Z,16.16
2022-09-09T17:34:10.567Z,16.18
2022-09-09T17:36:17.893Z,16.20
2022-09-09T17:38:19.755Z,16.22
2022-09-09T17:40:22.186Z,16.23
2022-09-09T17:42:23.664Z,16.23
2022-09-09T17:44:25.643Z,16.24
2022-09-09T17:46:30.363Z,16.24
2022-09-09T17:48:31.918Z,16.23
2022-09-09T17:50:34.720Z,16.23
2022-09-09T17:52:36.193Z,16.22
2022-09-09T17:54:37.760Z,16.21
2022-09-09T17:56:39.891Z,16.19
2022-09-09T17:58:41.926Z,16.16
2022-09-09T18:00:43.395Z,16.13
2022-09-09T18:02:44.922Z,16.12
2022-09-09T18:04:47.323Z,16.08
2022-09-09T18:06:51.842Z,16.09
2022-09-09T18:08:56.602Z,16.07
2022-09-09T18:10:58.103Z,16.02
2022-09-09T18:13:01.978Z,16.00
2022-09-09T18:15:04.342Z,16.00
2022-09-09T18:17:06.242Z,16.00
2022-09-09T18:19:12.418Z,15.99
2022-09-09T18:21:13.977Z,15.95
2022-09-09T18:23:15.408Z,15.97
2022-09-09T18:25:16.970Z,15.99
2022-09-09T18:27:18.487Z,15.98
2022-09-09T18:29:24.019Z,15.98
2022-09-09T18:31:27.234Z,15.98
2022-09-09T18:33:29.465Z,15.99
2022-09-09T18:35:30.904Z,15.95
2022-09-09T18:37:34.118Z,15.95
2022-09-09T18:39:35.623Z,15.96
2022-09-09T18:41:40.734Z,15.93
2022-09-09T18:43:43.057Z,15.89
2022-09-09T18:45:44.563Z,15.89
2022-09-09T18:47:48.877Z,15.89
2022-09-09T18:49:50.733Z,15.87
2022-09-09T18:51:52.697Z,15.81
2022-09-09T18:54:03.947Z,15.76
2022-09-09T18:56:08.308Z,15.74
2022-09-09T18:58:09.749Z,15.71
2022-09-09T19:00:12.265Z,15.74
2022-09-09T19:02:13.736Z,15.74
2022-09-09T19:04:15.525Z,15.73
2022-09-09T19:06:19.475Z,15.68
2022-09-09T19:08:20.979Z,15.62
2022-09-09T19:10:22.642Z,15.56
2022-09-09T19:12:24.370Z,15.54
2022-09-09T19:14:26.165Z,15.53
2022-09-09T19:16:30.423Z,15.52
2022-09-09T19:18:32.356Z,15.54
2022-09-09T19:20:33.814Z,15.56
2022-09-09T19:22:35.509Z,15.58
2022-09-09T19:24:37.595Z,15.59
2022-09-09T19:26:44.013Z,15.54
2022-09-09T19:28:47.008Z,15.49
2022-09-09T19:30:49.738Z,15.49
2022-09-09T19:32:53.967Z,15.48
2022-09-09T19:34:55.743Z,15.47
2022-09-09T19:36:57.599Z,15.44
2022-09-09T19:39:00.273Z,15.41
2022-09-09T19:41:08.392Z,15.39
2022-09-09T19:43:09.840Z,15.37
2022-09-09T19:45:11.270Z,15.37
2022-09-09T19:47:14.847Z,15.36
2022-09-09T19:49:17.297Z,15.28
2022-09-09T19:51:22.478Z,15.29
2022-09-09T19:53:23.965Z,15.27
2022-09-09T19:55:28.743Z,15.25
2022-09-09T19:57:30.794Z,15.25
2022-09-09T19:59:32.791Z,15.25
2022-09-09T20:01:40.245Z,15.24
2022-09-09T20:03:43.766Z,15.22
2022-09-09T20:05:45.207Z,15.20
2022-09-09T20:07:46.630Z,15.21
2022-09-09T20:09:48.069Z,15.19
2022-09-09T20:11:49.891Z,15.19
2022-09-09T20:13:52.109Z,15.18
2022-09-09T20:16:01.642Z,15.16
2022-09-09T20:18:04.559Z,15.13
2022-09-09T20:20:06.493Z,15.12
2022-09-09T20:22:08.001Z,15.09
2022-09-09T20:24:12.268Z,15.09
2022-09-09T20:26:23.462Z,15.08
2022-09-09T20:28:24.960Z,15.03
2022-09-09T20:30:26.468Z,15.02
2022-09-09T20:32:27.950Z,15.03
2022-09-09T20:34:30.006Z,15.04
2022-09-09T20:36:33.966Z,15.05
2022-09-09T20:38:35.428Z,15.04
2022-09-09T20:40:37.828Z,15.04
2022-09-09T20:42:39.444Z,15.03
2022-09-09T20:44:40.922Z,15.02
2022-09-09T20:46:47.965Z,15.02
2022-09-09T20:48:51.331Z,14.98
2022-09-09T20:50:52.779Z,14.98
2022-09-09T20:52:54.197Z,14.97
2022-09-09T20:54:55.984Z,14.95
2022-09-09T20:56:58.945Z,14.92
2022-09-09T20:59:00.975Z,14.89
2022-09-09T21:01:05.016Z,14.86
2022-09-09T21:03:06.629Z,14.84
2022-09-09T21:05:08.714Z,14.82
2022-09-09T21:07:10.419Z,14.82
2022-09-09T21:09:12.025Z,14.82
2022-09-09T21:11:14.251Z,14.81
2022-09-09T21:13:16.285Z,14.81
2022-09-09T21:15:17.725Z,14.79
2022-09-09T21:17:19.404Z,14.77
2022-09-09T21:19:20.886Z,14.77
2022-09-09T21:21:22.417Z,14.76
2022-09-09T21:23:24.647Z,14.76
2022-09-09T21:25:27.169Z,14.75
2022-09-09T21:27:29.646Z,14.76
2022-09-09T21:29:31.375Z,14.75
2022-09-09T21:31:32.929Z,14.73
2022-09-09T21:33:34.552Z,14.72
2022-09-09T21:35:40.615Z,14.71
2022-09-09T21:37:45.444Z,14.72
2022-09-09T21:39:47.867Z,14.70
2022-09-09T21:41:49.424Z,14.69
2022-09-09T21:43:54.382Z,14.69
2022-09-09T21:45:56.618Z,14.66
2022-09-09T21:47:58.185Z,14.62
2022-09-09T21:50:01.118Z,14.61
2022-09-09T21:52:03.032Z,14.58
2022-09-09T21:54:04.652Z,14.59
2022-09-09T21:56:11.547Z,14.59
2022-09-09T21:58:14.342Z,14.58
2022-09-09T22:00:18.974Z,14.58
2022-09-09T22:02:22.260Z,14.58
2022-09-09T22:04:24.308Z,14.58
2022-09-09T22:06:26.504Z,14.58
2022-09-09T22:08:29.427Z,14.55
2022-09-09T22:10:30.911Z,14.54
2022-09-09T22:12:32.723Z,14.54
2022-09-09T22:14:34.186Z,14.55
2022-09-09T22:16:35.682Z,14.57
2022-09-09T22:18:37.156Z,14.57
2022-09-09T22:20:47.130Z,14.58
2022-09-09T22:22:48.562Z,14.58
2022-09-09T22:24:49.981Z,14.58
2022-09-09T22:26:55.529Z,14.59
2022-09-09T22:28:57.893Z,14.60
2022-09-09T22:30:59.485Z,14.61
2022-09-09T22:33:01.503Z,14.62
2022-09-09T22:35:02.955Z,14.65
2022-09-09T22:37:05.858Z,14.66
2022-09-09T22:39:07.561Z,14.66
2022-09-09T22:41:10.572Z,14.68
2022-09-09T22:43:15.194Z,14.69
2022-09-09T22:45:16.854Z,14.67
2022-09-09T22:47:18.514Z,14.69
2022-09-09T22:49:20.126Z,14.72
2022-09-09T22:51:22.186Z,14.72
2022-09-09T22:53:23.622Z,14.71
2022-09-09T22:55:26.750Z,14.74
2022-09-09T22:57:28.506Z,14.74
2022-09-09T22:59:30.079Z,14.75
2022-09-09T23:01:31.909Z,14.75
2022-09-09T23:03:33.688Z,14.75
2022-09-09T23:05:37.233Z,14.75
2022-09-09T23:07:38.734Z,14.77
2022-09-09T23:09:40.158Z,14.76
2022-09-09T23:11:42.126Z,14.76
2022-09-09T23:13:49.535Z,14.73
2022-09-09T23:15:51.787Z,14.68
2022-09-09T23:17:55.754Z,14.65
2022-09-09T23:19:58.072Z,14.63
2022-09-09T23:22:00.588Z,14.60
2022-09-09T23:24:02.340Z,14.62
2022-09-09T23:26:08.593Z,14.61
2022-09-09T23:28:10.058Z,14.59
2022-09-09T23:30:11.865Z,14.59
2022-09-09T23:32:15.370Z,14.59
2022-09-09T23:34:16.821Z,14.60
2022-09-09T23:36:22.112Z,14.59
2022-09-09T23:38:23.538Z,14.60
2022-09-09T23:40:25.307Z,14.62
2022-09-09T23:42:26.912Z,14.62
2022-09-09T23:44:28.327Z,14.62
2022-09-09T23:46:31.025Z,14.61
2022-09-09T23:48:32.909Z,14.62
2022-09-09T23:50:34.728Z,14.63
2022-09-09T23:52:37.163Z,14.62
2022-09-09T23:54:38.675Z,14.63
2022-09-09T23:56:41.337Z,14.65
2022-09-09T23:58:42.765Z,14.66
